Time;durP1;ratioP1;P1;durP2;ratioP2;P2;SDS_P1;SDS_P2;PMS_P1;PMS_P2;Temp;Humidity;BMP_temperature;BMP_pressure;BME280_temperature;BME280_humidity;BME280_pressure;Samples;Min_cycle;Max_cycle;Signal;HPM_P1;HPM_P2
2021/07/11 00:00:45;;;;;;;17.40;13.50;;;18.30;18.40;19.40;100398.00;;;;4898140;29;20475;-83
2021/07/11 00:03:13;;;;;;;15.23;13.90;;;18.30;18.50;19.40;100430.00;;;;4891059;29;20463;-83
2021/07/11 00:05:42;;;;;;;15.93;14.30;;;18.30;18.70;19.40;100444.00;;;;4920599;29;20481;-83
2021/07/11 00:08:10;;;;;;;15.27;13.97;;;18.30;18.60;19.30;100452.00;;;;4920334;29;20700;-83
2021/07/11 00:10:39;;;;;;;17.57;14.43;;;18.30;18.50;19.30;100437.00;;;;4888314;29;21056;-83
2021/07/11 00:13:07;;;;;;;16.30;14.60;;;18.30;18.50;19.30;100391.00;;;;4889804;29;20465;-84
2021/07/11 00:15:37;;;;;;;15.57;14.10;;;18.30;18.30;19.40;100455.00;;;;4922923;29;20466;-83
2021/07/11 00:18:06;;;;;;;18.47;16.87;;;18.30;18.10;19.30;100431.00;;;;4922654;29;20490;-84
2021/07/11 00:20:34;;;;;;;15.70;14.20;;;18.20;18.40;19.40;100435.00;;;;4890829;29;20491;-83
2021/07/11 00:23:03;;;;;;;16.90;15.40;;;18.30;18.70;19.30;100462.00;;;;4893102;29;20462;-81
2021/07/11 00:25:31;;;;;;;17.03;15.43;;;18.40;18.60;19.20;100463.00;;;;4919093;29;20559;-84
2021/07/11 00:28:00;;;;;;;20.13;18.27;;;18.20;18.20;19.10;100441.00;;;;4920495;29;20554;-82
2021/07/11 00:30:28;;;;;;;18.93;17.20;;;18.10;18.20;19.00;100430.00;;;;4888276;29;20467;-82
2021/07/11 00:32:59;;;;;;;20.10;18.20;;;18.10;18.20;19.00;100432.00;;;;4890290;29;20463;-81
2021/07/11 00:35:27;;;;;;;20.50;18.40;;;18.00;18.20;19.00;100465.00;;;;4922107;29;20467;-82
2021/07/11 00:37:56;;;;;;;22.00;19.90;;;18.00;18.50;18.90;100441.00;;;;4898480;29;20574;-82
2021/07/11 00:40:26;;;;;;;18.27;16.67;;;17.90;18.40;18.90;100470.00;;;;4923246;29;20487;-79
2021/07/11 00:42:54;;;;;;;19.57;17.87;;;17.90;18.70;18.80;100445.00;;;;4939234;29;20463;-79
2021/07/11 00:45:25;;;;;;;19.83;18.00;;;17.90;18.70;18.80;100465.00;;;;4941301;29;20459;-80
2021/07/11 00:47:55;;;;;;;18.97;17.37;;;17.80;18.80;18.80;100433.00;;;;4923587;29;20475;-79
2021/07/11 00:50:24;;;;;;;15.07;13.77;;;17.90;19.00;18.80;100426.00;;;;4916506;29;20451;-81
2021/07/11 00:53:00;;;;;;;17.33;15.53;;;17.80;18.90;18.80;100412.00;;;;4935273;29;20985;-81
2021/07/11 00:55:28;;;;;;;17.47;15.63;;;17.80;18.80;18.80;100448.00;;;;4929281;29;20546;-81
2021/07/11 00:57:57;;;;;;;17.00;15.40;;;17.80;18.90;18.80;100425.00;;;;4892537;29;20854;-81
2021/07/11 01:00:35;;;;;;;14.90;13.20;;;17.80;19.10;18.80;100455.00;;;;4927053;29;20540;-80
2021/07/11 01:03:10;;;;;;;16.37;14.87;;;17.80;19.30;18.70;100462.00;;;;4922963;29;20482;-79
2021/07/11 01:05:46;;;;;;;12.07;10.97;;;17.80;19.00;18.80;100462.00;;;;4895566;29;20476;-79
2021/07/11 01:08:21;;;;;;;12.73;11.63;;;17.70;19.10;18.70;100472.00;;;;4946819;29;20455;-80
2021/07/11 01:10:56;;;;;;;14.10;12.80;;;17.80;19.10;18.60;100461.00;;;;4926867;29;20463;-80
2021/07/11 01:13:26;;;;;;;12.30;11.10;;;17.80;19.20;18.70;100465.00;;;;4886955;29;20514;-80
2021/07/11 01:16:01;;;;;;;12.80;11.60;;;17.80;19.20;18.70;100432.00;;;;4907473;29;20480;-79
2021/07/11 01:18:31;;;;;;;14.50;13.20;;;17.70;19.00;18.70;100444.00;;;;4900182;29;20474;-80
2021/07/11 01:21:07;;;;;;;14.07;12.77;;;17.80;19.30;18.70;100438.00;;;;4930360;29;20499;-79
2021/07/11 01:23:50;;;;;;;14.90;13.53;;;17.80;19.40;18.70;100467.00;;;;4905985;29;20474;-79
2021/07/11 01:26:21;;;;;;;16.20;12.80;;;17.80;19.30;18.70;100468.00;;;;4894349;29;20485;-79
2021/07/11 01:28:52;;;;;;;15.10;13.80;;;17.80;19.80;18.70;100390.00;;;;4930262;29;20728;-80
2021/07/11 01:31:24;;;;;;;14.87;13.40;;;17.80;19.00;18.70;100462.00;;;;4895464;29;20513;-80
2021/07/11 01:33:57;;;;;;;15.00;13.70;;;17.70;18.90;18.70;100453.00;;;;4895663;29;20854;-81
2021/07/11 01:36:28;;;;;;;13.83;12.63;;;17.70;19.00;18.70;100438.00;;;;4904269;29;21254;-79
2021/07/11 01:38:58;;;;;;;14.20;12.93;;;17.70;19.00;18.70;100458.00;;;;4901389;29;20463;-79
2021/07/11 01:41:37;;;;;;;11.70;10.60;;;17.70;19.00;18.60;100425.00;;;;4920307;29;20494;-81
2021/07/11 01:44:09;;;;;;;11.80;10.63;;;17.70;19.20;18.60;100451.00;;;;4917338;29;20457;-80
2021/07/11 01:46:45;;;;;;;11.80;10.60;;;17.70;19.10;18.50;100410.00;;;;4935286;29;20468;-80
2021/07/11 01:49:18;;;;;;;9.43;8.60;;;17.60;18.50;18.50;100312.00;;;;4941491;29;20462;-80
2021/07/11 01:51:54;;;;;;;11.40;9.73;;;17.60;18.60;18.50;100463.00;;;;4893117;29;20471;-80
2021/07/11 01:54:28;;;;;;;8.50;7.80;;;17.60;18.50;18.40;100432.00;;;;4892027;29;20911;-80
2021/07/11 01:57:00;;;;;;;10.00;9.07;;;17.50;18.30;18.40;100407.00;;;;4914836;29;20472;-79
2021/07/11 01:59:39;;;;;;;10.47;8.77;;;17.50;18.40;18.40;100443.00;;;;4930935;29;20458;-78
2021/07/11 02:02:24;;;;;;;8.43;7.73;;;17.50;18.40;18.30;100454.00;;;;4913661;29;20522;-78
2021/07/11 02:05:12;;;;;;;9.00;8.20;;;17.50;18.40;18.30;100424.00;;;;4928784;29;20478;-78
2021/07/11 02:07:42;;;;;;;7.93;7.07;;;17.50;18.50;18.30;100463.00;;;;4921541;29;21192;-79
2021/07/11 02:10:18;;;;;;;9.10;7.93;;;17.40;18.50;18.30;100470.00;;;;4897786;29;20459;-79
2021/07/11 02:13:03;;;;;;;9.10;8.17;;;17.50;18.60;18.30;100426.00;;;;4896834;29;20487;-80
2021/07/11 02:15:38;;;;;;;8.67;7.83;;;17.40;18.60;18.30;100452.00;;;;4903585;29;20454;-79
2021/07/11 02:18:10;;;;;;;8.07;7.27;;;17.50;18.90;18.30;100456.00;;;;4910849;29;20485;-78
2021/07/11 02:20:49;;;;;;;8.57;7.77;;;17.40;18.80;18.30;100447.00;;;;4906751;29;21617;-80
2021/07/11 02:23:23;;;;;;;8.07;7.37;;;17.50;18.80;18.30;100458.00;;;;4925117;29;20455;-79
2021/07/11 02:25:54;;;;;;;8.60;7.80;;;17.40;18.70;18.30;100457.00;;;;4924527;29;20459;-79
2021/07/11 02:28:25;;;;;;;8.80;7.93;;;17.40;18.80;18.30;100458.00;;;;4922523;29;20455;-79
2021/07/11 02:30:56;;;;;;;8.50;7.53;;;17.50;19.00;18.30;100462.00;;;;4898012;29;22639;-79
2021/07/11 02:33:32;;;;;;;8.00;7.20;;;17.50;19.00;18.40;100468.00;;;;4925894;29;20467;-79
2021/07/11 02:36:04;;;;;;;7.77;7.07;;;17.50;18.90;18.40;100428.00;;;;4926367;29;20491;-79
2021/07/11 02:38:45;;;;;;;8.27;7.57;;;17.50;19.00;18.30;100376.00;;;;4899446;29;20479;-80
2021/07/11 02:41:17;;;;;;;7.77;7.10;;;17.50;18.90;18.30;100418.00;;;;4892139;29;20577;-80
2021/07/11 02:43:49;;;;;;;7.13;6.53;;;17.40;18.70;18.20;100434.00;;;;4900052;29;20988;-79
2021/07/11 02:46:23;;;;;;;9.13;8.33;;;17.40;18.70;18.20;100460.00;;;;4910406;29;20471;-78
2021/07/11 02:48:54;;;;;;;9.40;8.50;;;17.40;18.80;18.20;100466.00;;;;4910249;29;20522;-79
2021/07/11 02:51:27;;;;;;;9.67;8.60;;;17.50;19.10;18.20;100419.00;;;;4925266;29;20467;-78
2021/07/11 02:54:00;;;;;;;8.30;7.60;;;17.40;19.40;18.20;100472.00;;;;4900629;29;20471;-78
2021/07/11 02:56:38;;;;;;;7.77;7.00;;;17.40;19.40;18.10;100441.00;;;;4894303;29;20455;-79
2021/07/11 02:59:12;;;;;;;11.10;7.93;;;17.40;19.40;18.20;100459.00;;;;4930725;29;20471;-79
2021/07/11 03:01:45;;;;;;;8.67;7.87;;;17.40;19.40;18.20;100451.00;;;;4912729;29;20490;-80
2021/07/11 03:04:21;;;;;;;8.50;7.40;;;17.40;19.40;18.20;100421.00;;;;4936442;29;20448;-77
2021/07/11 03:06:50;;;;;;;8.10;7.30;;;17.40;19.50;18.20;100453.00;;;;4943762;29;20482;-79
2021/07/11 03:09:18;;;;;;;8.90;6.70;;;17.40;19.40;18.20;100448.00;;;;4913650;29;20463;-78
2021/07/11 03:11:47;;;;;;;8.10;7.00;;;17.40;20.00;18.20;100436.00;;;;4903096;29;20462;-78
2021/07/11 03:14:18;;;;;;;8.00;6.70;;;17.40;19.40;18.20;100457.00;;;;4910225;29;20534;-79
2021/07/11 03:16:54;;;;;;;8.20;7.37;;;17.40;19.40;18.20;100461.00;;;;4901440;29;20483;-79
2021/07/11 03:19:28;;;;;;;9.83;7.10;;;17.40;19.40;18.20;100460.00;;;;4932163;29;20534;-80
2021/07/11 03:22:00;;;;;;;7.80;7.10;;;17.40;19.40;18.20;100460.00;;;;4910827;29;20497;-79
2021/07/11 03:24:32;;;;;;;7.47;6.80;;;17.40;19.40;18.20;100456.00;;;;4932932;29;20470;-78
2021/07/11 03:27:05;;;;;;;8.60;7.27;;;17.40;19.40;18.20;100403.00;;;;4929215;29;20485;-80
2021/07/11 03:29:40;;;;;;;8.10;7.40;;;17.40;19.40;18.20;100459.00;;;;4936131;29;20473;-77
2021/07/11 03:32:10;;;;;;;7.50;6.80;;;17.40;19.40;18.20;100464.00;;;;4906665;29;20459;-80
2021/07/11 03:34:39;;;;;;;6.97;6.10;;;17.40;19.40;18.20;100469.00;;;;4917176;29;20466;-80
2021/07/11 03:37:18;;;;;;;7.70;7.00;;;17.40;19.40;18.20;100470.00;;;;4903872;29;20550;-80
2021/07/11 03:39:51;;;;;;;11.40;7.00;;;17.40;19.40;18.20;100452.00;;;;4902663;29;21717;-79
2021/07/11 03:42:28;;;;;;;9.30;6.90;;;17.30;19.40;18.10;100458.00;;;;4907193;29;20503;-78
2021/07/11 03:45:00;;;;;;;8.90;8.10;;;17.30;19.40;18.10;100469.00;;;;4895693;29;20546;-79
2021/07/11 03:47:38;;;;;;;9.90;7.93;;;17.30;19.40;18.10;100445.00;;;;4922024;29;20518;-79
2021/07/11 03:50:08;;;;;;;11.70;9.03;;;17.30;19.40;18.10;100319.00;;;;4894167;29;21385;-78
2021/07/11 03:52:53;;;;;;;10.27;7.90;;;17.30;19.40;18.10;100428.00;;;;4900499;29;20463;-79
2021/07/11 03:55:22;;;;;;;8.97;8.07;;;17.20;19.30;18.10;100475.00;;;;4923009;29;20972;-78
2021/07/11 03:57:52;;;;;;;9.53;7.83;;;17.20;19.30;18.10;100475.00;;;;4900570;29;20483;-79
2021/07/11 04:00:23;;;;;;;9.77;7.10;;;17.20;19.30;17.90;100444.00;;;;4892553;29;20974;-77
2021/07/11 04:02:53;;;;;;;10.33;7.77;;;17.30;19.40;18.10;100407.00;;;;4892262;29;20574;-79
2021/07/11 04:05:26;;;;;;;7.90;7.10;;;17.30;19.40;18.20;100467.00;;;;4902213;29;20579;-78
2021/07/11 04:07:56;;;;;;;8.57;7.20;;;17.30;19.40;18.20;100448.00;;;;4926609;29;20574;-79
2021/07/11 04:10:28;;;;;;;7.57;6.87;;;17.30;19.40;18.20;100481.00;;;;4894672;29;20495;-79
2021/07/11 04:12:59;;;;;;;9.07;8.17;;;17.30;19.40;18.20;100458.00;;;;4924445;29;20539;-79
2021/07/11 04:15:32;;;;;;;8.47;7.33;;;17.30;19.40;18.20;100491.00;;;;4895921;29;21039;-80
2021/07/11 04:18:06;;;;;;;7.90;7.20;;;17.30;19.20;18.20;100454.00;;;;4910234;29;20578;-78
2021/07/11 04:20:36;;;;;;;10.43;8.20;;;17.30;18.90;18.20;100498.00;;;;4894900;29;20456;-80
2021/07/11 04:23:06;;;;;;;8.00;6.83;;;17.20;18.70;18.20;100490.00;;;;4906074;29;20922;-78
2021/07/11 04:25:40;;;;;;;7.87;7.10;;;17.30;19.00;18.10;100505.00;;;;4927843;29;20460;-77
2021/07/11 04:28:09;;;;;;;9.57;8.67;;;17.30;18.90;18.20;100501.00;;;;4931109;29;20517;-79
2021/07/11 04:30:40;;;;;;;8.87;8.03;;;17.30;18.80;18.20;100511.00;;;;4926967;29;20506;-78
2021/07/11 04:33:13;;;;;;;9.10;8.20;;;17.30;18.90;18.20;100503.00;;;;4906952;29;20566;-78
2021/07/11 04:35:42;;;;;;;10.43;7.80;;;17.30;18.80;18.20;100436.00;;;;4896384;29;20554;-79
2021/07/11 04:38:10;;;;;;;12.03;8.83;;;17.30;18.60;18.20;100393.00;;;;4905676;29;20516;-79
2021/07/11 04:40:39;;;;;;;10.67;9.77;;;17.30;18.70;18.20;100508.00;;;;4920789;29;20455;-77
2021/07/11 04:43:08;;;;;;;13.03;9.37;;;17.30;18.70;18.30;100513.00;;;;4897757;29;20903;-78
2021/07/11 04:45:36;;;;;;;12.07;10.90;;;17.30;18.90;18.30;100508.00;;;;4919967;29;20463;-79
2021/07/11 04:48:07;;;;;;;10.90;10.00;;;17.30;18.60;18.30;100510.00;;;;4903828;29;20483;-78
2021/07/11 04:50:36;;;;;;;12.70;9.67;;;17.40;18.50;18.20;100514.00;;;;4889030;29;20470;-81
2021/07/11 04:53:06;;;;;;;11.67;9.70;;;17.40;18.60;18.30;100528.00;;;;4896618;29;20485;-79
2021/07/11 04:55:34;;;;;;;14.83;10.00;;;17.50;18.60;18.30;100484.00;;;;4889876;29;20464;-80
2021/07/11 04:58:02;;;;;;;11.50;9.40;;;17.40;18.70;18.30;100513.00;;;;4897938;29;20475;-79
2021/07/11 05:00:31;;;;;;;12.93;10.20;;;17.50;18.70;18.30;100482.00;;;;4906008;29;20451;-79
2021/07/11 05:02:59;;;;;;;10.77;9.77;;;17.50;18.70;18.40;100515.00;;;;4900111;29;20487;-77
2021/07/11 05:05:29;;;;;;;10.43;9.43;;;17.50;18.70;18.40;100518.00;;;;4937701;29;20483;-80
2021/07/11 05:07:57;;;;;;;10.77;9.00;;;17.50;18.50;18.50;100484.00;;;;4945154;29;20506;-81
2021/07/11 05:10:25;;;;;;;11.10;10.10;;;17.50;18.40;18.50;100508.00;;;;4902051;29;21036;-79
2021/07/11 05:12:54;;;;;;;11.00;9.33;;;17.50;18.30;18.50;100517.00;;;;4901347;29;20479;-79
2021/07/11 05:15:23;;;;;;;10.83;9.77;;;17.60;18.50;18.50;100517.00;;;;4898630;29;20886;-78
2021/07/11 05:17:51;;;;;;;11.20;9.90;;;17.60;18.10;18.50;100509.00;;;;4920592;29;20538;-78
2021/07/11 05:20:19;;;;;;;10.77;9.63;;;17.70;17.90;18.60;100529.00;;;;4887498;29;20487;-77
2021/07/11 05:22:49;;;;;;;10.20;9.07;;;17.60;17.80;18.60;100494.00;;;;4897800;29;20850;-79
2021/07/11 05:25:18;;;;;;;11.47;10.30;;;17.60;17.80;18.50;100489.00;;;;4892952;29;20482;-77
2021/07/11 05:27:46;;;;;;;12.50;9.87;;;17.60;17.80;18.60;100484.00;;;;4923092;29;21024;-79
2021/07/11 05:30:16;;;;;;;11.23;9.40;;;17.70;17.80;18.60;100506.00;;;;4901795;29;20466;-77
2021/07/11 05:32:45;;;;;;;11.40;10.30;;;17.70;17.80;18.60;100509.00;;;;4901814;29;20526;-79
2021/07/11 05:35:13;;;;;;;11.00;9.90;;;17.70;17.80;18.70;100513.00;;;;4899511;29;20461;-79
2021/07/11 05:37:41;;;;;;;10.10;9.10;;;17.70;18.00;18.70;100489.00;;;;4923252;29;20547;-80
2021/07/11 05:40:13;;;;;;;11.73;9.50;;;17.80;18.00;18.70;100510.00;;;;4904496;29;20493;-76
2021/07/11 05:42:41;;;;;;;12.47;11.27;;;17.80;17.80;18.70;100512.00;;;;4923044;29;20502;-78
2021/07/11 05:45:11;;;;;;;11.80;10.57;;;17.80;18.00;18.60;100519.00;;;;4923275;29;20454;-79
2021/07/11 05:47:40;;;;;;;10.60;9.50;;;17.80;17.60;18.70;100512.00;;;;4901123;29;20997;-79
2021/07/11 05:50:10;;;;;;;11.70;9.13;;;17.80;17.50;18.70;100500.00;;;;4899714;29;20582;-80
2021/07/11 05:52:38;;;;;;;9.90;9.00;;;17.80;17.40;18.70;100519.00;;;;4892881;29;20459;-78
2021/07/11 05:55:09;;;;;;;10.53;8.67;;;17.80;17.40;18.80;100513.00;;;;4884217;29;20455;-80
2021/07/11 05:57:39;;;;;;;11.77;10.10;;;17.80;17.10;18.80;100523.00;;;;4922802;29;20491;-79
2021/07/11 06:00:11;;;;;;;10.10;8.90;;;17.90;17.20;18.90;100527.00;;;;4923785;29;20587;-79
2021/07/11 06:02:42;;;;;;;10.07;8.33;;;17.90;17.70;18.80;100516.00;;;;4890617;29;20518;-79
2021/07/11 06:05:12;;;;;;;8.70;8.00;;;17.90;16.40;18.80;100552.00;;;;4919098;29;21027;-78
2021/07/11 06:07:40;;;;;;;10.00;9.00;;;17.80;16.10;18.90;100541.00;;;;4899600;29;20479;-82
2021/07/11 06:10:10;;;;;;;8.97;8.07;;;17.90;16.50;18.90;100542.00;;;;4896710;29;21064;-81
2021/07/11 06:12:40;;;;;;;12.00;8.67;;;18.00;16.00;18.90;100553.00;;;;4895396;29;20511;-80
2021/07/11 06:15:10;;;;;;;9.53;8.50;;;17.90;15.50;18.90;100543.00;;;;4930607;29;20471;-78
2021/07/11 06:17:39;;;;;;;12.80;8.80;;;17.90;15.50;18.90;100551.00;;;;4911677;29;20478;-80
2021/07/11 06:20:11;;;;;;;9.20;8.40;;;17.90;16.30;18.80;100563.00;;;;4904495;29;20459;-79
2021/07/11 06:22:41;;;;;;;9.27;8.37;;;17.90;15.70;18.80;100543.00;;;;4904981;29;20455;-79
2021/07/11 06:25:11;;;;;;;10.10;7.90;;;17.90;15.70;18.80;100557.00;;;;4892913;29;20479;-80
2021/07/11 06:27:44;;;;;;;9.40;8.60;;;17.90;15.70;18.90;100537.00;;;;4895097;29;20479;-79
2021/07/11 06:30:15;;;;;;;10.27;8.73;;;17.90;15.70;18.90;100522.00;;;;4894647;29;20454;-80
2021/07/11 06:32:47;;;;;;;11.73;8.57;;;17.90;15.50;18.80;100568.00;;;;4930449;29;20474;-79
2021/07/11 06:35:20;;;;;;;10.43;9.10;;;17.90;15.50;18.80;100565.00;;;;4896599;29;21036;-80
2021/07/11 06:37:51;;;;;;;9.10;8.30;;;17.80;15.50;18.70;100560.00;;;;4898378;29;20475;-78
2021/07/11 06:40:24;;;;;;;11.03;8.90;;;17.80;15.50;18.70;100554.00;;;;4928231;29;20590;-81
2021/07/11 06:42:54;;;;;;;10.53;9.33;;;17.80;15.60;18.70;100548.00;;;;4895444;29;20494;-78
2021/07/11 06:45:23;;;;;;;13.20;9.67;;;17.80;15.50;18.70;100539.00;;;;4890969;29;20543;-77
2021/07/11 06:47:51;;;;;;;13.57;11.70;;;17.80;15.20;18.80;100566.00;;;;4889967;29;20543;-79
2021/07/11 06:50:19;;;;;;;12.63;10.00;;;17.80;15.50;18.80;100563.00;;;;4921750;29;21024;-79
2021/07/11 06:52:50;;;;;;;11.03;9.17;;;17.90;15.60;18.90;100575.00;;;;4923924;29;20455;-80
2021/07/11 06:55:19;;;;;;;11.63;9.40;;;17.90;15.50;18.90;100566.00;;;;4926112;29;20582;-80
2021/07/11 06:57:49;;;;;;;11.90;9.77;;;17.90;15.40;18.90;100563.00;;;;4902968;29;20530;-79
2021/07/11 07:00:20;;;;;;;9.90;9.00;;;18.00;15.60;18.90;100576.00;;;;4894320;29;20463;-81
2021/07/11 07:02:49;;;;;;;9.50;8.10;;;18.00;15.20;19.00;100571.00;;;;4903601;29;20456;-79
2021/07/11 07:05:17;;;;;;;9.10;8.20;;;18.10;15.50;19.00;100556.00;;;;4906414;29;20554;-79
2021/07/11 07:07:45;;;;;;;9.47;7.17;;;18.00;14.70;19.10;100539.00;;;;4909065;29;20777;-80
2021/07/11 07:10:14;;;;;;;9.63;7.87;;;18.10;14.90;19.10;100577.00;;;;4913166;29;20880;-81
2021/07/11 07:12:44;;;;;;;9.90;8.10;;;18.10;14.50;19.10;100578.00;;;;4947548;29;20455;-81
2021/07/11 07:15:14;;;;;;;8.50;7.70;;;18.10;14.40;19.20;100563.00;;;;4913172;29;20465;-79
2021/07/11 07:17:45;;;;;;;10.87;8.90;;;18.20;14.50;19.30;100557.00;;;;4901232;29;20626;-80
2021/07/11 07:20:15;;;;;;;8.20;7.50;;;18.30;14.90;19.30;100571.00;;;;4902620;29;21038;-81
2021/07/11 07:22:45;;;;;;;11.20;9.00;;;18.30;14.40;19.30;100534.00;;;;4893765;29;20465;-80
2021/07/11 07:25:17;;;;;;;8.47;7.63;;;18.30;14.30;19.20;100562.00;;;;4900381;29;20577;-80
2021/07/11 07:27:47;;;;;;;8.37;7.57;;;18.30;13.60;19.20;100577.00;;;;4895574;29;21052;-80
2021/07/11 07:30:18;;;;;;;11.07;7.43;;;18.30;13.10;19.10;100569.00;;;;4903128;29;20494;-79
2021/07/11 07:32:49;;;;;;;9.40;8.40;;;18.30;14.40;19.10;100543.00;;;;4925126;29;20550;-81
2021/07/11 07:35:20;;;;;;;10.47;8.50;;;18.30;13.80;19.10;100560.00;;;;4895126;29;20503;-79
2021/07/11 07:37:50;;;;;;;11.40;7.30;;;18.20;13.80;19.20;100575.00;;;;4891326;29;20827;-80
2021/07/11 07:40:22;;;;;;;10.43;8.43;;;18.20;14.40;19.20;100568.00;;;;4902063;29;20832;-79
2021/07/11 07:42:51;;;;;;;6.30;5.30;;;18.30;14.60;19.10;100562.00;;;;4926405;29;20534;-81
2021/07/11 07:45:20;;;;;;;5.77;5.27;;;18.20;13.40;19.10;100568.00;;;;4928290;29;20490;-80
2021/07/11 07:47:51;;;;;;;5.13;4.63;;;18.10;12.50;19.10;100559.00;;;;4911695;29;20570;-80
2021/07/11 07:50:20;;;;;;;4.63;4.20;;;18.10;11.90;19.10;100573.00;;;;4907599;29;20468;-81
2021/07/11 07:52:48;;;;;;;5.57;5.07;;;18.00;11.30;19.00;100566.00;;;;4925754;29;20487;-80
2021/07/11 07:55:17;;;;;;;4.87;4.47;;;18.00;10.10;19.00;100591.00;;;;4900256;29;20514;-81
2021/07/11 07:57:46;;;;;;;5.70;5.10;;;18.00;10.40;19.10;100575.00;;;;4925982;29;20479;-80
2021/07/11 08:00:17;;;;;;;5.80;5.17;;;18.00;10.80;19.20;100590.00;;;;4924955;29;20547;-79
2021/07/11 08:02:45;;;;;;;8.80;5.67;;;18.10;11.40;19.30;100600.00;;;;4922672;29;20470;-79
2021/07/11 08:05:15;;;;;;;5.30;4.80;;;18.10;11.40;19.30;100577.00;;;;4899435;29;21022;-81
2021/07/11 08:07:45;;;;;;;7.23;5.83;;;18.20;10.60;19.30;100579.00;;;;4913078;29;20578;-79
2021/07/11 08:10:16;;;;;;;7.17;5.10;;;18.20;11.30;19.30;100581.00;;;;4901528;29;20463;-80
2021/07/11 08:12:46;;;;;;;8.00;5.60;;;18.30;10.50;19.40;100582.00;;;;4900692;29;20665;-79
2021/07/11 08:15:17;;;;;;;6.80;6.07;;;18.30;10.60;19.40;100572.00;;;;4897340;29;20550;-80
2021/07/11 08:17:47;;;;;;;6.97;6.00;;;18.30;10.90;19.60;100610.00;;;;4931875;29;20486;-81
2021/07/11 08:20:20;;;;;;;5.57;5.07;;;18.60;11.70;19.60;100602.00;;;;4913384;29;20484;-81
2021/07/11 08:22:49;;;;;;;6.50;5.47;;;18.50;10.40;19.70;100607.00;;;;4898471;29;20462;-79
2021/07/11 08:25:19;;;;;;;5.20;4.80;;;18.60;10.30;19.70;100565.00;;;;4890693;29;20491;-79
2021/07/11 08:27:49;;;;;;;6.47;5.90;;;18.60;8.80;19.80;100598.00;;;;4920881;29;20489;-79
2021/07/11 08:30:19;;;;;;;7.77;7.07;;;18.70;9.40;20.00;100578.00;;;;4896254;29;20468;-78
2021/07/11 08:32:47;;;;;;;7.00;6.40;;;18.80;9.20;20.10;100602.00;;;;4922729;29;20473;-79
2021/07/11 08:35:17;;;;;;;5.70;5.20;;;19.00;9.60;20.00;100608.00;;;;4922206;29;20494;-79
2021/07/11 08:37:46;;;;;;;7.43;5.70;;;19.10;7.90;20.30;100554.00;;;;4924752;29;20574;-80
2021/07/11 08:40:15;;;;;;;8.50;5.80;;;19.10;6.30;20.40;100602.00;;;;4927211;29;20454;-78
2021/07/11 08:42:44;;;;;;;5.73;5.23;;;19.20;6.10;20.50;100587.00;;;;4894300;29;20456;-78
2021/07/11 08:45:13;;;;;;;5.60;5.10;;;19.30;5.60;20.60;100583.00;;;;4888692;29;20493;-80
2021/07/11 08:47:42;;;;;;;5.40;4.90;;;19.40;4.10;20.60;100598.00;;;;4920797;29;20904;-79
2021/07/11 08:50:15;;;;;;;5.70;4.90;;;19.50;3.10;20.80;100613.00;;;;4885572;29;20559;-80
2021/07/11 08:52:48;;;;;;;6.43;5.07;;;19.60;2.60;20.90;100595.00;;;;4923374;29;20463;-78
2021/07/11 08:55:20;;;;;;;6.23;5.63;;;19.70;2.00;21.20;100602.00;;;;4925249;29;20542;-79
2021/07/11 08:57:52;;;;;;;8.27;6.33;;;19.90;1.90;21.40;100590.00;;;;4924860;29;20479;-79
2021/07/11 09:00:25;;;;;;;5.77;5.27;;;20.10;1.20;21.50;100625.00;;;;4893135;29;20522;-79
2021/07/11 09:02:54;;;;;;;5.87;5.30;;;20.30;1.00;21.70;100596.00;;;;4898612;29;20447;-81
2021/07/11 09:05:26;;;;;;;5.90;5.40;;;20.40;1.00;22.00;100606.00;;;;4931070;29;20491;-81
2021/07/11 09:08:02;;;;;;;7.00;6.30;;;20.60;1.00;22.10;100612.00;;;;4929351;29;20487;-80
2021/07/11 09:10:33;;;;;;;7.30;5.37;;;21.00;1.00;22.30;100615.00;;;;4911093;29;20955;-79
2021/07/11 09:13:04;;;;;;;5.37;4.87;;;21.00;1.00;22.40;100625.00;;;;4926185;29;20519;-78
2021/07/11 09:15:35;;;;;;;6.83;5.90;;;21.10;1.00;22.50;100615.00;;;;4925438;29;20455;-79
2021/07/11 09:18:05;;;;;;;6.70;5.10;;;21.20;1.00;22.60;100623.00;;;;4894795;29;20558;-77
2021/07/11 09:20:33;;;;;;;5.77;5.27;;;21.30;1.00;22.80;100616.00;;;;4892962;29;20544;-78
2021/07/11 09:23:05;;;;;;;5.23;4.40;;;21.40;1.00;22.80;100610.00;;;;4883427;29;20453;-77
2021/07/11 09:25:33;;;;;;;5.77;4.67;;;21.30;1.00;22.70;100624.00;;;;4888976;29;20489;-77
2021/07/11 09:28:12;;;;;;;6.50;5.90;;;21.20;1.00;22.70;100602.00;;;;4922087;29;20495;-81
2021/07/11 09:30:41;;;;;;;6.50;5.03;;;21.10;1.00;22.60;100623.00;;;;4890945;29;20461;-79
2021/07/11 09:33:18;;;;;;;5.40;4.90;;;21.00;1.00;22.20;100592.00;;;;4924208;29;20522;-80
2021/07/11 09:35:51;;;;;;;6.10;5.50;;;20.70;1.00;22.00;100614.00;;;;4889235;29;20470;-79
2021/07/11 09:38:30;;;;;;;6.50;5.50;;;20.50;1.00;21.80;100640.00;;;;4901766;29;20474;-80
2021/07/11 09:40:58;;;;;;;7.00;6.30;;;20.30;1.00;21.60;100628.00;;;;4921108;29;20462;-80
2021/07/11 09:43:27;;;;;;;6.33;5.80;;;20.20;1.00;21.50;100625.00;;;;4894134;29;20462;-78
2021/07/11 09:45:55;;;;;;;6.20;5.10;;;20.10;1.00;21.40;100614.00;;;;4925860;29;21034;-79
2021/07/11 09:48:34;;;;;;;7.57;5.10;;;20.00;1.00;21.40;100617.00;;;;4896792;29;20551;-80
2021/07/11 09:51:14;;;;;;;5.97;5.47;;;20.00;1.00;21.50;100618.00;;;;4896941;29;20538;-80
2021/07/11 09:53:44;;;;;;;6.20;5.60;;;20.00;1.00;21.70;100641.00;;;;4898003;29;20522;-79
2021/07/11 09:56:36;;;;;;;6.47;5.70;;;20.10;1.00;21.90;100636.00;;;;4928424;29;21008;-78
2021/07/11 09:59:06;;;;;;;6.90;6.20;;;20.30;1.00;22.10;100649.00;;;;4894249;29;21020;-77
2021/07/11 10:01:37;;;;;;;6.97;6.37;;;20.40;1.00;22.10;100652.00;;;;4894731;29;20466;-77
2021/07/11 10:04:07;;;;;;;6.20;5.10;;;20.50;1.00;22.10;100602.00;;;;4922384;29;20968;-78
2021/07/11 10:06:37;;;;;;;8.57;6.33;;;20.60;1.00;22.10;100619.00;;;;4890938;29;20497;-77
2021/07/11 10:09:09;;;;;;;7.60;7.00;;;20.70;1.00;22.10;100636.00;;;;4891072;29;20538;-77
2021/07/11 10:11:38;;;;;;;6.90;6.30;;;20.60;1.00;22.10;100618.00;;;;4891066;29;20510;-78
2021/07/11 10:14:07;;;;;;;7.60;6.90;;;20.50;1.00;22.10;100586.00;;;;4921194;29;20455;-77
2021/07/11 10:16:37;;;;;;;8.27;7.23;;;20.40;1.00;22.40;100634.00;;;;4899297;29;20534;-81
2021/07/11 10:19:09;;;;;;;7.73;7.03;;;20.60;1.00;22.60;100622.00;;;;4891972;29;20486;-76
2021/07/11 10:21:44;;;;;;;8.07;7.37;;;20.90;1.00;23.00;100613.00;;;;4890440;29;20459;-79
2021/07/11 10:24:21;;;;;;;8.17;7.37;;;21.20;1.00;23.50;100637.00;;;;4928137;29;20462;-77
2021/07/11 10:26:50;;;;;;;7.30;6.60;;;21.70;1.00;23.80;100623.00;;;;4901750;29;20494;-81
2021/07/11 10:29:21;;;;;;;7.87;7.17;;;22.00;1.00;24.00;100624.00;;;;4896552;29;20544;-77
2021/07/11 10:31:55;;;;;;;8.10;7.40;;;22.20;1.00;24.10;100629.00;;;;4902735;29;20447;-77
2021/07/11 10:34:30;;;;;;;8.33;7.63;;;22.40;1.00;24.40;100629.00;;;;4926063;29;20538;-77
2021/07/11 10:36:59;;;;;;;9.07;8.17;;;22.70;1.00;24.60;100602.00;;;;4893545;29;20478;-78
2021/07/11 10:39:35;;;;;;;9.30;8.47;;;23.00;1.00;25.00;100625.00;;;;4891733;29;20450;-80
2021/07/11 10:42:04;;;;;;;8.10;7.40;;;23.30;1.00;24.70;100625.00;;;;4901550;29;20577;-77
2021/07/11 10:44:33;;;;;;;7.63;7.00;;;23.30;1.00;24.60;100634.00;;;;4893112;29;20473;-77
2021/07/11 10:47:06;;;;;;;7.90;7.20;;;23.20;1.00;24.40;100626.00;;;;4894789;29;20491;-77
2021/07/11 10:49:37;;;;;;;7.97;7.33;;;23.20;1.00;24.50;100630.00;;;;4899137;29;20518;-76
2021/07/11 10:52:08;;;;;;;8.43;7.63;;;23.10;1.00;24.50;100632.00;;;;4923195;29;20523;-77
2021/07/11 10:54:50;;;;;;;8.47;7.77;;;23.10;1.00;24.50;100624.00;;;;4924441;29;20563;-77
2021/07/11 10:57:33;;;;;;;8.40;7.70;;;23.00;1.00;24.80;100625.00;;;;4899966;29;21002;-77
2021/07/11 11:00:16;;;;;;;8.60;7.90;;;23.20;1.00;24.90;100632.00;;;;4901208;29;21021;-77
2021/07/11 11:02:48;;;;;;;7.27;6.67;;;23.60;1.00;24.80;100651.00;;;;4893010;29;21198;-78